sensor_id;sensor_type;location;lat;lon;timestamp;P1;durP1;ratioP1;P2;durP2;ratioP2
71236;SDS011;58984;51.960;5.582;2023-04-06T00:01:06;15.13;;;9.50;;
71236;SDS011;58984;51.960;5.582;2023-04-06T00:03:32;15.10;;;8.75;;
71236;SDS011;58984;51.960;5.582;2023-04-06T00:05:58;12.60;;;8.95;;
71236;SDS011;58984;51.960;5.582;2023-04-06T00:08:24;15.88;;;9.07;;
71236;SDS011;58984;51.960;5.582;2023-04-06T00:10:50;11.50;;;8.77;;
71236;SDS011;58984;51.960;5.582;2023-04-06T00:13:16;12.52;;;8.20;;
71236;SDS011;58984;51.960;5.582;2023-04-06T00:15:41;12.40;;;8.05;;
71236;SDS011;58984;51.960;5.582;2023-04-06T00:18:07;13.82;;;8.57;;
71236;SDS011;58984;51.960;5.582;2023-04-06T00:20:32;10.93;;;8.05;;
71236;SDS011;58984;51.960;5.582;2023-04-06T00:22:58;12.52;;;8.07;;
71236;SDS011;58984;51.960;5.582;2023-04-06T00:25:23;12.93;;;8.98;;
71236;SDS011;58984;51.960;5.582;2023-04-06T00:27:49;15.20;;;8.20;;
71236;SDS011;58984;51.960;5.582;2023-04-06T00:30:15;13.48;;;7.90;;
71236;SDS011;58984;51.960;5.582;2023-04-06T00:32:40;11.15;;;8.18;;
71236;SDS011;58984;51.960;5.582;2023-04-06T00:35:06;15.05;;;8.00;;
71236;SDS011;58984;51.960;5.582;2023-04-06T00:37:31;14.02;;;7.80;;
71236;SDS011;58984;51.960;5.582;2023-04-06T00:39:57;12.10;;;7.93;;
71236;SDS011;58984;51.960;5.582;2023-04-06T00:42:23;11.85;;;7.78;;
71236;SDS011;58984;51.960;5.582;2023-04-06T00:44:53;14.70;;;8.45;;
71236;SDS011;58984;51.960;5.582;2023-04-06T00:47:20;13.02;;;7.65;;
71236;SDS011;58984;51.960;5.582;2023-04-06T00:49:46;12.68;;;7.72;;
71236;SDS011;58984;51.960;5.582;2023-04-06T00:52:12;12.70;;;7.32;;
71236;SDS011;58984;51.960;5.582;2023-04-06T00:54:37;10.55;;;7.47;;
71236;SDS011;58984;51.960;5.582;2023-04-06T00:57:03;12.98;;;8.35;;
71236;SDS011;58984;51.960;5.582;2023-04-06T00:59:29;11.68;;;8.10;;
71236;SDS011;58984;51.960;5.582;2023-04-06T01:01:55;12.23;;;7.88;;
71236;SDS011;58984;51.960;5.582;2023-04-06T01:04:21;12.73;;;8.10;;
71236;SDS011;58984;51.960;5.582;2023-04-06T01:06:49;9.88;;;7.18;;
71236;SDS011;58984;51.960;5.582;2023-04-06T01:09:16;13.23;;;8.10;;
71236;SDS011;58984;51.960;5.582;2023-04-06T01:11:42;13.23;;;6.90;;
71236;SDS011;58984;51.960;5.582;2023-04-06T01:14:08;12.75;;;7.82;;
71236;SDS011;58984;51.960;5.582;2023-04-06T01:16:33;14.73;;;8.45;;
71236;SDS011;58984;51.960;5.582;2023-04-06T01:18:59;13.35;;;8.82;;
71236;SDS011;58984;51.960;5.582;2023-04-06T01:21:25;12.10;;;7.95;;
71236;SDS011;58984;51.960;5.582;2023-04-06T01:23:51;12.18;;;7.63;;
71236;SDS011;58984;51.960;5.582;2023-04-06T01:26:17;11.93;;;7.80;;
71236;SDS011;58984;51.960;5.582;2023-04-06T01:28:42;11.55;;;7.80;;
71236;SDS011;58984;51.960;5.582;2023-04-06T01:31:09;11.25;;;7.93;;
71236;SDS011;58984;51.960;5.582;2023-04-06T01:33:35;16.45;;;8.05;;
71236;SDS011;58984;51.960;5.582;2023-04-06T01:36:01;9.73;;;7.90;;
71236;SDS011;58984;51.960;5.582;2023-04-06T01:38:28;14.98;;;8.25;;
71236;SDS011;58984;51.960;5.582;2023-04-06T01:40:53;9.35;;;7.45;;
71236;SDS011;58984;51.960;5.582;2023-04-06T01:43:19;15.82;;;8.63;;
71236;SDS011;58984;51.960;5.582;2023-04-06T01:45:45;14.48;;;8.43;;
71236;SDS011;58984;51.960;5.582;2023-04-06T01:48:10;15.68;;;8.95;;
71236;SDS011;58984;51.960;5.582;2023-04-06T01:50:36;11.13;;;8.32;;
71236;SDS011;58984;51.960;5.582;2023-04-06T01:53:01;12.93;;;8.73;;
71236;SDS011;58984;51.960;5.582;2023-04-06T01:55:27;13.88;;;8.90;;
71236;SDS011;58984;51.960;5.582;2023-04-06T01:57:53;13.18;;;8.05;;
71236;SDS011;58984;51.960;5.582;2023-04-06T02:00:18;12.25;;;7.95;;
71236;SDS011;58984;51.960;5.582;2023-04-06T02:02:44;13.98;;;8.77;;
71236;SDS011;58984;51.960;5.582;2023-04-06T02:05:10;18.70;;;9.63;;
71236;SDS011;58984;51.960;5.582;2023-04-06T02:07:36;12.98;;;8.45;;
71236;SDS011;58984;51.960;5.582;2023-04-06T02:10:01;16.15;;;9.00;;
71236;SDS011;58984;51.960;5.582;2023-04-06T02:12:27;15.90;;;8.68;;
71236;SDS011;58984;51.960;5.582;2023-04-06T02:14:53;15.63;;;9.07;;
71236;SDS011;58984;51.960;5.582;2023-04-06T02:17:18;11.60;;;8.63;;
71236;SDS011;58984;51.960;5.582;2023-04-06T02:19:44;15.18;;;9.38;;
71236;SDS011;58984;51.960;5.582;2023-04-06T02:22:10;13.25;;;9.23;;
71236;SDS011;58984;51.960;5.582;2023-04-06T02:24:36;12.63;;;8.63;;
71236;SDS011;58984;51.960;5.582;2023-04-06T02:27:01;12.23;;;9.00;;
71236;SDS011;58984;51.960;5.582;2023-04-06T02:29:27;13.57;;;9.23;;
71236;SDS011;58984;51.960;5.582;2023-04-06T02:31:53;13.02;;;9.18;;
71236;SDS011;58984;51.960;5.582;2023-04-06T02:34:18;14.88;;;9.50;;
71236;SDS011;58984;51.960;5.582;2023-04-06T02:36:44;12.10;;;9.50;;
71236;SDS011;58984;51.960;5.582;2023-04-06T02:39:10;13.82;;;9.60;;
71236;SDS011;58984;51.960;5.582;2023-04-06T02:41:36;14.48;;;9.65;;
71236;SDS011;58984;51.960;5.582;2023-04-06T02:44:02;14.70;;;9.38;;
71236;SDS011;58984;51.960;5.582;2023-04-06T02:46:28;15.40;;;9.63;;
71236;SDS011;58984;51.960;5.582;2023-04-06T02:48:53;15.25;;;9.75;;
71236;SDS011;58984;51.960;5.582;2023-04-06T02:51:19;14.15;;;9.80;;
71236;SDS011;58984;51.960;5.582;2023-04-06T02:53:45;14.55;;;10.25;;
71236;SDS011;58984;51.960;5.582;2023-04-06T02:56:11;12.38;;;10.00;;
71236;SDS011;58984;51.960;5.582;2023-04-06T02:58:37;20.02;;;10.27;;
71236;SDS011;58984;51.960;5.582;2023-04-06T03:01:02;14.40;;;9.95;;
71236;SDS011;58984;51.960;5.582;2023-04-06T03:03:28;18.15;;;10.00;;
71236;SDS011;58984;51.960;5.582;2023-04-06T03:05:55;17.80;;;10.63;;
71236;SDS011;58984;51.960;5.582;2023-04-06T03:08:23;17.02;;;9.80;;
71236;SDS011;58984;51.960;5.582;2023-04-06T03:10:49;17.80;;;10.43;;
71236;SDS011;58984;51.960;5.582;2023-04-06T03:13:15;19.65;;;10.07;;
71236;SDS011;58984;51.960;5.582;2023-04-06T03:15:40;13.50;;;10.00;;
71236;SDS011;58984;51.960;5.582;2023-04-06T03:18:06;15.35;;;10.30;;
71236;SDS011;58984;51.960;5.582;2023-04-06T03:20:31;19.27;;;10.35;;
71236;SDS011;58984;51.960;5.582;2023-04-06T03:22:57;17.10;;;9.98;;
71236;SDS011;58984;51.960;5.582;2023-04-06T03:25:23;16.13;;;10.30;;
71236;SDS011;58984;51.960;5.582;2023-04-06T03:27:49;18.52;;;10.32;;
71236;SDS011;58984;51.960;5.582;2023-04-06T03:30:14;17.60;;;10.32;;
71236;SDS011;58984;51.960;5.582;2023-04-06T03:32:42;17.92;;;10.10;;
71236;SDS011;58984;51.960;5.582;2023-04-06T03:35:10;19.98;;;10.25;;
71236;SDS011;58984;51.960;5.582;2023-04-06T03:37:36;20.80;;;10.60;;
71236;SDS011;58984;51.960;5.582;2023-04-06T03:40:02;15.27;;;10.02;;
71236;SDS011;58984;51.960;5.582;2023-04-06T03:42:28;15.27;;;10.43;;
71236;SDS011;58984;51.960;5.582;2023-04-06T03:44:54;17.23;;;10.55;;
71236;SDS011;58984;51.960;5.582;2023-04-06T03:47:20;16.63;;;10.85;;
71236;SDS011;58984;51.960;5.582;2023-04-06T03:49:45;15.05;;;10.88;;
71236;SDS011;58984;51.960;5.582;2023-04-06T03:52:11;16.77;;;10.77;;
71236;SDS011;58984;51.960;5.582;2023-04-06T03:54:36;16.48;;;10.88;;
71236;SDS011;58984;51.960;5.582;2023-04-06T03:57:02;16.70;;;10.90;;
71236;SDS011;58984;51.960;5.582;2023-04-06T03:59:28;19.92;;;11.07;;
71236;SDS011;58984;51.960;5.582;2023-04-06T04:01:54;20.55;;;11.55;;
71236;SDS011;58984;51.960;5.582;2023-04-06T04:04:20;16.88;;;11.15;;
71236;SDS011;58984;51.960;5.582;2023-04-06T04:06:45;19.52;;;11.63;;
71236;SDS011;58984;51.960;5.582;2023-04-06T04:09:11;21.33;;;12.13;;
71236;SDS011;58984;51.960;5.582;2023-04-06T04:11:37;19.45;;;11.88;;
71236;SDS011;58984;51.960;5.582;2023-04-06T04:14:02;23.35;;;11.98;;
71236;SDS011;58984;51.960;5.582;2023-04-06T04:16:28;19.98;;;12.98;;
71236;SDS011;58984;51.960;5.582;2023-04-06T04:18:54;18.38;;;12.05;;
71236;SDS011;58984;51.960;5.582;2023-04-06T04:21:19;19.70;;;12.25;;
71236;SDS011;58984;51.960;5.582;2023-04-06T04:23:45;19.23;;;12.55;;
71236;SDS011;58984;51.960;5.582;2023-04-06T04:26:11;23.98;;;13.63;;
71236;SDS011;58984;51.960;5.582;2023-04-06T04:28:37;22.52;;;12.85;;
71236;SDS011;58984;51.960;5.582;2023-04-06T04:31:02;21.58;;;12.63;;
71236;SDS011;58984;51.960;5.582;2023-04-06T04:33:29;19.63;;;13.02;;
71236;SDS011;58984;51.960;5.582;2023-04-06T04:35:54;21.65;;;13.02;;
71236;SDS011;58984;51.960;5.582;2023-04-06T04:38:20;22.48;;;13.10;;
71236;SDS011;58984;51.960;5.582;2023-04-06T04:40:45;22.60;;;13.30;;
71236;SDS011;58984;51.960;5.582;2023-04-06T04:43:11;20.73;;;13.18;;
71236;SDS011;58984;51.960;5.582;2023-04-06T04:45:36;20.52;;;13.95;;
71236;SDS011;58984;51.960;5.582;2023-04-06T04:48:02;22.08;;;13.75;;
71236;SDS011;58984;51.960;5.582;2023-04-06T04:50:29;19.92;;;13.32;;
71236;SDS011;58984;51.960;5.582;2023-04-06T04:52:55;21.58;;;14.20;;
71236;SDS011;58984;51.960;5.582;2023-04-06T04:55:21;20.08;;;13.75;;
71236;SDS011;58984;51.960;5.582;2023-04-06T04:57:46;19.65;;;13.15;;
71236;SDS011;58984;51.960;5.582;2023-04-06T05:00:12;22.90;;;14.05;;
71236;SDS011;58984;51.960;5.582;2023-04-06T05:02:38;30.52;;;15.35;;
71236;SDS011;58984;51.960;5.582;2023-04-06T05:05:04;24.05;;;14.40;;
71236;SDS011;58984;51.960;5.582;2023-04-06T05:07:30;21.90;;;14.32;;
71236;SDS011;58984;51.960;5.582;2023-04-06T05:09:55;23.48;;;14.70;;
71236;SDS011;58984;51.960;5.582;2023-04-06T05:12:22;26.08;;;13.90;;
71236;SDS011;58984;51.960;5.582;2023-04-06T05:14:48;22.77;;;14.90;;
71236;SDS011;58984;51.960;5.582;2023-04-06T05:17:13;22.48;;;14.45;;
71236;SDS011;58984;51.960;5.582;2023-04-06T05:19:39;25.30;;;15.70;;
71236;SDS011;58984;51.960;5.582;2023-04-06T05:22:05;25.38;;;14.57;;
71236;SDS011;58984;51.960;5.582;2023-04-06T05:24:30;23.40;;;15.32;;
71236;SDS011;58984;51.960;5.582;2023-04-06T05:26:56;24.48;;;15.07;;
71236;SDS011;58984;51.960;5.582;2023-04-06T05:29:22;23.13;;;15.43;;
71236;SDS011;58984;51.960;5.582;2023-04-06T05:31:47;22.30;;;15.25;;
71236;SDS011;58984;51.960;5.582;2023-04-06T05:34:13;27.23;;;15.00;;
71236;SDS011;58984;51.960;5.582;2023-04-06T05:36:39;22.92;;;14.80;;
71236;SDS011;58984;51.960;5.582;2023-04-06T05:39:05;24.20;;;14.20;;
71236;SDS011;58984;51.960;5.582;2023-04-06T05:41:32;21.65;;;14.48;;
71236;SDS011;58984;51.960;5.582;2023-04-06T05:43:57;24.13;;;15.73;;
71236;SDS011;58984;51.960;5.582;2023-04-06T05:46:23;25.77;;;14.98;;
71236;SDS011;58984;51.960;5.582;2023-04-06T05:48:48;25.50;;;15.43;;
71236;SDS011;58984;51.960;5.582;2023-04-06T05:51:14;26.15;;;15.32;;
71236;SDS011;58984;51.960;5.582;2023-04-06T05:53:40;25.40;;;14.93;;
71236;SDS011;58984;51.960;5.582;2023-04-06T05:56:05;26.38;;;16.17;;
71236;SDS011;58984;51.960;5.582;2023-04-06T05:58:31;26.13;;;15.38;;
71236;SDS011;58984;51.960;5.582;2023-04-06T06:00:57;27.33;;;15.20;;
71236;SDS011;58984;51.960;5.582;2023-04-06T06:03:24;26.23;;;15.35;;
71236;SDS011;58984;51.960;5.582;2023-04-06T06:05:49;22.60;;;14.80;;
71236;SDS011;58984;51.960;5.582;2023-04-06T06:08:15;24.27;;;15.35;;
71236;SDS011;58984;51.960;5.582;2023-04-06T06:10:40;26.98;;;16.77;;
71236;SDS011;58984;51.960;5.582;2023-04-06T06:13:06;27.30;;;15.85;;
71236;SDS011;58984;51.960;5.582;2023-04-06T06:15:32;24.88;;;15.18;;
71236;SDS011;58984;51.960;5.582;2023-04-06T06:17:57;22.10;;;15.43;;
71236;SDS011;58984;51.960;5.582;2023-04-06T06:20:24;26.30;;;16.00;;
71236;SDS011;58984;51.960;5.582;2023-04-06T06:22:50;28.02;;;16.70;;
71236;SDS011;58984;51.960;5.582;2023-04-06T06:25:16;27.65;;;16.15;;
71236;SDS011;58984;51.960;5.582;2023-04-06T06:27:41;23.48;;;15.88;;
71236;SDS011;58984;51.960;5.582;2023-04-06T06:30:08;24.45;;;16.77;;
71236;SDS011;58984;51.960;5.582;2023-04-06T06:32:33;31.45;;;18.38;;
71236;SDS011;58984;51.960;5.582;2023-04-06T06:34:59;32.90;;;17.33;;
71236;SDS011;58984;51.960;5.582;2023-04-06T06:37:25;25.67;;;16.95;;
71236;SDS011;58984;51.960;5.582;2023-04-06T06:39:50;30.23;;;17.05;;
71236;SDS011;58984;51.960;5.582;2023-04-06T06:42:16;30.75;;;16.42;;
71236;SDS011;58984;51.960;5.582;2023-04-06T06:44:41;25.77;;;16.42;;
71236;SDS011;58984;51.960;5.582;2023-04-06T06:47:07;27.75;;;17.30;;
71236;SDS011;58984;51.960;5.582;2023-04-06T06:49:32;26.42;;;17.35;;
71236;SDS011;58984;51.960;5.582;2023-04-06T06:51:58;28.85;;;16.23;;
71236;SDS011;58984;51.960;5.582;2023-04-06T06:54:23;27.92;;;16.02;;
71236;SDS011;58984;51.960;5.582;2023-04-06T06:56:49;29.05;;;17.00;;
71236;SDS011;58984;51.960;5.582;2023-04-06T06:59:15;26.33;;;16.42;;
71236;SDS011;58984;51.960;5.582;2023-04-06T07:01:41;32.88;;;17.38;;
71236;SDS011;58984;51.960;5.582;2023-04-06T07:04:06;28.35;;;16.88;;
71236;SDS011;58984;51.960;5.582;2023-04-06T07:06:34;24.30;;;16.98;;
71236;SDS011;58984;51.960;5.582;2023-04-06T07:09:00;24.00;;;15.82;;
71236;SDS011;58984;51.960;5.582;2023-04-06T07:11:27;30.08;;;17.67;;
71236;SDS011;58984;51.960;5.582;2023-04-06T07:13:53;30.73;;;17.83;;
71236;SDS011;58984;51.960;5.582;2023-04-06T07:16:19;29.25;;;17.08;;
71236;SDS011;58984;51.960;5.582;2023-04-06T07:18:45;28.23;;;17.25;;
71236;SDS011;58984;51.960;5.582;2023-04-06T07:21:11;30.45;;;17.13;;
71236;SDS011;58984;51.960;5.582;2023-04-06T07:23:36;28.55;;;17.48;;
71236;SDS011;58984;51.960;5.582;2023-04-06T07:26:02;30.00;;;17.83;;
71236;SDS011;58984;51.960;5.582;2023-04-06T07:28:28;32.10;;;18.35;;
71236;SDS011;58984;51.960;5.582;2023-04-06T07:30:53;29.83;;;17.98;;
71236;SDS011;58984;51.960;5.582;2023-04-06T07:33:19;29.83;;;18.73;;
71236;SDS011;58984;51.960;5.582;2023-04-06T07:35:45;25.08;;;18.13;;
71236;SDS011;58984;51.960;5.582;2023-04-06T07:38:11;26.95;;;17.83;;
71236;SDS011;58984;51.960;5.582;2023-04-06T07:40:36;29.83;;;17.45;;
71236;SDS011;58984;51.960;5.582;2023-04-06T07:43:02;31.10;;;18.13;;
71236;SDS011;58984;51.960;5.582;2023-04-06T07:45:28;27.75;;;17.90;;
71236;SDS011;58984;51.960;5.582;2023-04-06T07:47:53;31.45;;;19.08;;
71236;SDS011;58984;51.960;5.582;2023-04-06T07:50:19;30.25;;;18.00;;
71236;SDS011;58984;51.960;5.582;2023-04-06T07:52:45;29.13;;;19.05;;
71236;SDS011;58984;51.960;5.582;2023-04-06T07:55:11;32.33;;;18.67;;
71236;SDS011;58984;51.960;5.582;2023-04-06T07:57:36;29.92;;;18.58;;
71236;SDS011;58984;51.960;5.582;2023-04-06T08:00:02;34.05;;;20.05;;
71236;SDS011;58984;51.960;5.582;2023-04-06T08:02:29;29.75;;;18.60;;
71236;SDS011;58984;51.960;5.582;2023-04-06T08:04:55;29.30;;;18.48;;
71236;SDS011;58984;51.960;5.582;2023-04-06T08:07:20;33.10;;;19.60;;
71236;SDS011;58984;51.960;5.582;2023-04-06T08:09:46;28.98;;;17.55;;
71236;SDS011;58984;51.960;5.582;2023-04-06T08:12:12;32.63;;;20.05;;
71236;SDS011;58984;51.960;5.582;2023-04-06T08:14:37;37.45;;;20.45;;
71236;SDS011;58984;51.960;5.582;2023-04-06T08:17:03;30.98;;;19.80;;
71236;SDS011;58984;51.960;5.582;2023-04-06T08:19:28;32.65;;;19.58;;
71236;SDS011;58984;51.960;5.582;2023-04-06T08:21:54;26.73;;;18.33;;
71236;SDS011;58984;51.960;5.582;2023-04-06T08:24:20;30.05;;;19.67;;
71236;SDS011;58984;51.960;5.582;2023-04-06T08:26:45;33.28;;;19.92;;
71236;SDS011;58984;51.960;5.582;2023-04-06T08:29:11;33.70;;;19.67;;
71236;SDS011;58984;51.960;5.582;2023-04-06T08:31:37;31.88;;;20.17;;
71236;SDS011;58984;51.960;5.582;2023-04-06T08:34:03;29.83;;;19.85;;
71236;SDS011;58984;51.960;5.582;2023-04-06T08:36:30;32.15;;;20.13;;
71236;SDS011;58984;51.960;5.582;2023-04-06T08:38:55;35.85;;;20.55;;
71236;SDS011;58984;51.960;5.582;2023-04-06T08:41:21;37.15;;;21.02;;
71236;SDS011;58984;51.960;5.582;2023-04-06T08:43:47;30.65;;;20.75;;
71236;SDS011;58984;51.960;5.582;2023-04-06T08:46:15;34.58;;;21.00;;
71236;SDS011;58984;51.960;5.582;2023-04-06T08:48:41;41.15;;;22.15;;
71236;SDS011;58984;51.960;5.582;2023-04-06T08:51:10;33.42;;;20.50;;
71236;SDS011;58984;51.960;5.582;2023-04-06T08:53:37;34.03;;;20.63;;
71236;SDS011;58984;51.960;5.582;2023-04-06T08:56:03;31.25;;;20.27;;
71236;SDS011;58984;51.960;5.582;2023-04-06T08:58:32;34.78;;;20.55;;
71236;SDS011;58984;51.960;5.582;2023-04-06T09:00:59;33.47;;;19.27;;
71236;SDS011;58984;51.960;5.582;2023-04-06T09:03:27;37.17;;;21.90;;
71236;SDS011;58984;51.960;5.582;2023-04-06T09:05:54;32.28;;;20.58;;
71236;SDS011;58984;51.960;5.582;2023-04-06T09:08:20;33.08;;;21.15;;
71236;SDS011;58984;51.960;5.582;2023-04-06T09:10:45;39.75;;;20.70;;
71236;SDS011;58984;51.960;5.582;2023-04-06T09:13:11;31.88;;;20.25;;
71236;SDS011;58984;51.960;5.582;2023-04-06T09:15:37;35.03;;;20.00;;
71236;SDS011;58984;51.960;5.582;2023-04-06T09:18:03;36.33;;;21.08;;
71236;SDS011;58984;51.960;5.582;2023-04-06T09:20:28;35.78;;;21.05;;
71236;SDS011;58984;51.960;5.582;2023-04-06T09:22:54;35.15;;;21.42;;
71236;SDS011;58984;51.960;5.582;2023-04-06T09:25:21;31.88;;;20.40;;
71236;SDS011;58984;51.960;5.582;2023-04-06T09:27:48;32.15;;;20.00;;
71236;SDS011;58984;51.960;5.582;2023-04-06T09:30:22;31.10;;;19.63;;
71236;SDS011;58984;51.960;5.582;2023-04-06T09:32:50;33.38;;;20.85;;
71236;SDS011;58984;51.960;5.582;2023-04-06T09:35:20;29.30;;;19.67;;
71236;SDS011;58984;51.960;5.582;2023-04-06T09:37:47;32.80;;;20.65;;
71236;SDS011;58984;51.960;5.582;2023-04-06T09:40:13;33.20;;;20.60;;
71236;SDS011;58984;51.960;5.582;2023-04-06T09:42:41;32.97;;;19.58;;
71236;SDS011;58984;51.960;5.582;2023-04-06T09:45:07;35.40;;;21.08;;
71236;SDS011;58984;51.960;5.582;2023-04-06T09:47:33;36.25;;;19.75;;
71236;SDS011;58984;51.960;5.582;2023-04-06T09:50:01;27.98;;;18.17;;
71236;SDS011;58984;51.960;5.582;2023-04-06T09:52:37;33.17;;;20.25;;
71236;SDS011;58984;51.960;5.582;2023-04-06T09:55:06;34.15;;;21.00;;
71236;SDS011;58984;51.960;5.582;2023-04-06T10:00:22;36.75;;;19.70;;
71236;SDS011;58984;51.960;5.582;2023-04-06T10:02:51;34.33;;;20.48;;
71236;SDS011;58984;51.960;5.582;2023-04-06T10:05:37;34.17;;;20.48;;
71236;SDS011;58984;51.960;5.582;2023-04-06T10:08:10;33.30;;;19.67;;
71236;SDS011;58984;51.960;5.582;2023-04-06T10:10:37;29.77;;;19.00;;
71236;SDS011;58984;51.960;5.582;2023-04-06T10:13:05;31.05;;;18.95;;
71236;SDS011;58984;51.960;5.582;2023-04-06T10:15:32;29.55;;;19.27;;
71236;SDS011;58984;51.960;5.582;2023-04-06T10:17:58;31.85;;;18.90;;
71236;SDS011;58984;51.960;5.582;2023-04-06T10:20:34;29.10;;;18.27;;
71236;SDS011;58984;51.960;5.582;2023-04-06T10:23:13;31.35;;;18.02;;
71236;SDS011;58984;51.960;5.582;2023-04-06T10:25:54;28.67;;;17.77;;
71236;SDS011;58984;51.960;5.582;2023-04-06T10:28:21;31.35;;;18.35;;
71236;SDS011;58984;51.960;5.582;2023-04-06T10:30:47;38.08;;;19.25;;
71236;SDS011;58984;51.960;5.582;2023-04-06T10:33:16;27.52;;;17.30;;
71236;SDS011;58984;51.960;5.582;2023-04-06T10:35:43;29.58;;;16.95;;
71236;SDS011;58984;51.960;5.582;2023-04-06T10:38:09;30.02;;;18.52;;
71236;SDS011;58984;51.960;5.582;2023-04-06T10:40:37;30.98;;;17.85;;
71236;SDS011;58984;51.960;5.582;2023-04-06T10:43:10;26.73;;;16.40;;
71236;SDS011;58984;51.960;5.582;2023-04-06T10:45:37;28.65;;;18.02;;
71236;SDS011;58984;51.960;5.582;2023-04-06T10:48:14;27.10;;;16.75;;
71236;SDS011;58984;51.960;5.582;2023-04-06T10:50:41;31.50;;;17.17;;
71236;SDS011;58984;51.960;5.582;2023-04-06T10:53:19;22.58;;;14.13;;
71236;SDS011;58984;51.960;5.582;2023-04-06T10:55:50;20.48;;;13.20;;
71236;SDS011;58984;51.960;5.582;2023-04-06T10:58:17;24.63;;;13.25;;
71236;SDS011;58984;51.960;5.582;2023-04-06T11:00:44;26.08;;;12.43;;
71236;SDS011;58984;51.960;5.582;2023-04-06T11:03:10;23.05;;;12.75;;
71236;SDS011;58984;51.960;5.582;2023-04-06T11:05:35;19.75;;;12.35;;
71236;SDS011;58984;51.960;5.582;2023-04-06T11:08:01;21.95;;;11.85;;
71236;SDS011;58984;51.960;5.582;2023-04-06T11:10:27;17.40;;;11.20;;
71236;SDS011;58984;51.960;5.582;2023-04-06T11:12:55;21.27;;;11.48;;
71236;SDS011;58984;51.960;5.582;2023-04-06T11:15:21;16.90;;;10.27;;
71236;SDS011;58984;51.960;5.582;2023-04-06T11:17:47;16.00;;;10.75;;
71236;SDS011;58984;51.960;5.582;2023-04-06T11:20:14;18.30;;;9.88;;
71236;SDS011;58984;51.960;5.582;2023-04-06T11:22:49;16.20;;;9.88;;
71236;SDS011;58984;51.960;5.582;2023-04-06T11:25:18;14.07;;;9.07;;
71236;SDS011;58984;51.960;5.582;2023-04-06T11:27:44;16.02;;;9.68;;
71236;SDS011;58984;51.960;5.582;2023-04-06T11:30:11;16.73;;;9.60;;
71236;SDS011;58984;51.960;5.582;2023-04-06T11:32:41;15.65;;;10.13;;
71236;SDS011;58984;51.960;5.582;2023-04-06T11:35:21;17.13;;;9.60;;
71236;SDS011;58984;51.960;5.582;2023-04-06T11:37:48;13.82;;;9.13;;
71236;SDS011;58984;51.960;5.582;2023-04-06T11:40:15;15.10;;;8.43;;
71236;SDS011;58984;51.960;5.582;2023-04-06T11:42:51;16.77;;;9.90;;
71236;SDS011;58984;51.960;5.582;2023-04-06T11:45:17;17.02;;;8.77;;
71236;SDS011;58984;51.960;5.582;2023-04-06T11:47:43;15.45;;;9.27;;
71236;SDS011;58984;51.960;5.582;2023-04-06T11:50:12;17.05;;;9.57;;
71236;SDS011;58984;51.960;5.582;2023-04-06T11:52:39;14.73;;;9.48;;
71236;SDS011;58984;51.960;5.582;2023-04-06T11:55:12;12.68;;;8.43;;
71236;SDS011;58984;51.960;5.582;2023-04-06T11:57:40;16.02;;;8.40;;
71236;SDS011;58984;51.960;5.582;2023-04-06T12:00:07;14.18;;;8.35;;
71236;SDS011;58984;51.960;5.582;2023-04-06T12:02:34;16.23;;;8.38;;
71236;SDS011;58984;51.960;5.582;2023-04-06T12:05:04;14.82;;;8.52;;
71236;SDS011;58984;51.960;5.582;2023-04-06T12:07:31;13.32;;;7.60;;
71236;SDS011;58984;51.960;5.582;2023-04-06T12:09:58;13.85;;;7.82;;
71236;SDS011;58984;51.960;5.582;2023-04-06T12:12:27;9.45;;;7.00;;
71236;SDS011;58984;51.960;5.582;2023-04-06T12:14:53;10.73;;;6.85;;
71236;SDS011;58984;51.960;5.582;2023-04-06T12:17:20;10.00;;;6.88;;
71236;SDS011;58984;51.960;5.582;2023-04-06T12:19:45;10.20;;;6.10;;
71236;SDS011;58984;51.960;5.582;2023-04-06T12:22:11;10.73;;;6.70;;
71236;SDS011;58984;51.960;5.582;2023-04-06T12:24:37;12.20;;;7.30;;
71236;SDS011;58984;51.960;5.582;2023-04-06T12:27:02;9.45;;;7.50;;
71236;SDS011;58984;51.960;5.582;2023-04-06T12:29:28;14.38;;;7.70;;
71236;SDS011;58984;51.960;5.582;2023-04-06T12:31:53;13.73;;;7.75;;
71236;SDS011;58984;51.960;5.582;2023-04-06T12:34:19;14.07;;;7.55;;
71236;SDS011;58984;51.960;5.582;2023-04-06T12:36:45;10.25;;;6.53;;
71236;SDS011;58984;51.960;5.582;2023-04-06T12:39:10;12.18;;;7.30;;
71236;SDS011;58984;51.960;5.582;2023-04-06T12:41:36;10.65;;;7.53;;
71236;SDS011;58984;51.960;5.582;2023-04-06T12:44:02;13.68;;;8.10;;
71236;SDS011;58984;51.960;5.582;2023-04-06T12:46:28;10.40;;;7.45;;
71236;SDS011;58984;51.960;5.582;2023-04-06T12:48:57;10.85;;;7.78;;
71236;SDS011;58984;51.960;5.582;2023-04-06T12:51:24;13.30;;;8.00;;
71236;SDS011;58984;51.960;5.582;2023-04-06T12:53:53;12.60;;;7.40;;
71236;SDS011;58984;51.960;5.582;2023-04-06T12:56:19;12.40;;;7.78;;
71236;SDS011;58984;51.960;5.582;2023-04-06T12:58:46;13.35;;;8.35;;
71236;SDS011;58984;51.960;5.582;2023-04-06T13:01:12;13.43;;;7.88;;
71236;SDS011;58984;51.960;5.582;2023-04-06T13:03:38;15.07;;;8.75;;
71236;SDS011;58984;51.960;5.582;2023-04-06T13:06:04;14.10;;;8.13;;
71236;SDS011;58984;51.960;5.582;2023-04-06T13:08:30;14.93;;;8.55;;
71236;SDS011;58984;51.960;5.582;2023-04-06T13:10:55;17.67;;;9.13;;
71236;SDS011;58984;51.960;5.582;2023-04-06T13:13:25;12.55;;;8.15;;
71236;SDS011;58984;51.960;5.582;2023-04-06T13:15:52;12.52;;;8.63;;
71236;SDS011;58984;51.960;5.582;2023-04-06T13:18:18;12.82;;;8.32;;
71236;SDS011;58984;51.960;5.582;2023-04-06T13:20:46;15.43;;;8.40;;
71236;SDS011;58984;51.960;5.582;2023-04-06T13:23:12;14.88;;;8.90;;
71236;SDS011;58984;51.960;5.582;2023-04-06T13:25:38;10.05;;;7.97;;
71236;SDS011;58984;51.960;5.582;2023-04-06T13:28:04;11.68;;;7.65;;
71236;SDS011;58984;51.960;5.582;2023-04-06T13:30:29;13.07;;;7.95;;
71236;SDS011;58984;51.960;5.582;2023-04-06T13:32:55;13.13;;;7.18;;
71236;SDS011;58984;51.960;5.582;2023-04-06T13:35:21;13.50;;;8.02;;
71236;SDS011;58984;51.960;5.582;2023-04-06T13:37:47;13.82;;;8.40;;
71236;SDS011;58984;51.960;5.582;2023-04-06T13:40:13;14.30;;;8.43;;
71236;SDS011;58984;51.960;5.582;2023-04-06T13:42:39;14.50;;;8.23;;
71236;SDS011;58984;51.960;5.582;2023-04-06T13:45:06;12.98;;;8.15;;
71236;SDS011;58984;51.960;5.582;2023-04-06T13:47:32;13.45;;;8.10;;
71236;SDS011;58984;51.960;5.582;2023-04-06T13:49:57;15.30;;;8.77;;
71236;SDS011;58984;51.960;5.582;2023-04-06T13:52:23;11.98;;;7.97;;
71236;SDS011;58984;51.960;5.582;2023-04-06T13:54:49;13.27;;;8.10;;
71236;SDS011;58984;51.960;5.582;2023-04-06T13:57:15;15.75;;;9.52;;
71236;SDS011;58984;51.960;5.582;2023-04-06T13:59:41;14.25;;;8.35;;
71236;SDS011;58984;51.960;5.582;2023-04-06T14:02:07;11.77;;;7.78;;
71236;SDS011;58984;51.960;5.582;2023-04-06T14:04:34;13.95;;;8.63;;
71236;SDS011;58984;51.960;5.582;2023-04-06T14:07:00;16.70;;;9.18;;
71236;SDS011;58984;51.960;5.582;2023-04-06T14:09:27;14.23;;;8.43;;
71236;SDS011;58984;51.960;5.582;2023-04-06T14:11:53;12.77;;;7.72;;
71236;SDS011;58984;51.960;5.582;2023-04-06T14:14:19;11.45;;;7.43;;
71236;SDS011;58984;51.960;5.582;2023-04-06T14:16:45;12.57;;;8.27;;
71236;SDS011;58984;51.960;5.582;2023-04-06T14:19:13;15.57;;;8.82;;
71236;SDS011;58984;51.960;5.582;2023-04-06T14:21:40;14.07;;;8.38;;
71236;SDS011;58984;51.960;5.582;2023-04-06T14:24:07;12.82;;;7.95;;
71236;SDS011;58984;51.960;5.582;2023-04-06T14:26:34;13.23;;;8.27;;